createdAt,value
2022-07-27T03:29:10.440Z,192.00
2022-07-27T03:30:10.205Z,204.00
2022-07-27T03:31:10.311Z,220.00
2022-07-27T03:32:10.213Z,232.00
2022-07-27T03:33:10.220Z,244.00
2022-07-27T03:34:10.229Z,260.00
2022-07-27T03:35:10.241Z,276.00
2022-07-27T03:36:10.248Z,288.00
2022-07-27T03:37:10.257Z,304.00
2022-07-27T03:38:11.483Z,324.00
2022-07-27T03:39:10.596Z,344.00
2022-07-27T03:40:10.282Z,360.00
2022-07-27T03:41:10.295Z,380.00
2022-07-27T03:42:10.292Z,400.00
2022-07-27T03:43:10.308Z,420.00
2022-07-27T03:44:10.310Z,444.00
2022-07-27T03:45:10.319Z,460.00
2022-07-27T03:46:10.370Z,484.00
2022-07-27T03:47:10.342Z,508.00
2022-07-27T03:48:10.349Z,528.00
2022-07-27T03:49:14.856Z,552.00
2022-07-27T03:50:10.369Z,576.00
2022-07-27T03:51:10.369Z,600.00
2022-07-27T03:52:15.709Z,628.00
2022-07-27T03:53:10.387Z,652.00
2022-07-27T03:54:10.392Z,680.00
2022-07-27T03:55:10.402Z,704.00
2022-07-27T03:56:10.417Z,736.00
2022-07-27T03:57:10.418Z,760.00
2022-07-27T03:58:10.434Z,788.00
2022-07-27T03:59:10.787Z,824.00
2022-07-27T04:00:10.450Z,852.00
2022-07-27T04:01:10.530Z,880.00
2022-07-27T04:02:10.517Z,916.00
2022-07-27T04:03:10.468Z,944.00
2022-07-27T04:04:10.480Z,980.00
2022-07-27T04:05:10.485Z,1016.00
2022-07-27T04:06:10.502Z,1052.00
2022-07-27T04:07:10.511Z,1088.00
2022-07-27T04:08:10.519Z,1132.00
2022-07-27T04:09:10.525Z,1176.00
2022-07-27T04:10:10.529Z,1224.00
2022-07-27T04:11:10.542Z,1268.00
2022-07-27T04:12:10.577Z,1304.00
2022-07-27T04:13:10.560Z,1332.00
2022-07-27T04:14:10.566Z,1360.00
2022-07-27T04:15:10.580Z,1388.00
2022-07-27T04:16:10.727Z,1416.00
2022-07-27T04:17:10.644Z,1448.00
2022-07-27T04:18:10.604Z,1484.00
2022-07-27T04:19:10.989Z,1512.00
2022-07-27T04:20:10.613Z,1548.00
2022-07-27T04:21:10.624Z,1576.00
2022-07-27T04:22:10.637Z,1600.00
2022-07-27T04:23:10.640Z,1624.00
2022-07-27T04:24:10.656Z,1652.00
2022-07-27T04:25:10.668Z,1680.00
2022-07-27T04:26:10.674Z,1712.00
2022-07-27T04:27:10.681Z,1748.00
2022-07-27T04:28:10.690Z,1780.00
2022-07-27T04:29:10.915Z,1812.00
2022-07-27T04:30:10.710Z,1844.00
2022-07-27T04:31:10.914Z,1876.00
2022-07-27T04:32:10.716Z,1912.00
2022-07-27T04:33:10.733Z,1948.00
2022-07-27T04:34:10.742Z,1980.00
2022-07-27T04:35:10.745Z,2008.00
2022-07-27T04:36:10.758Z,2036.00
2022-07-27T04:37:10.768Z,2060.00
2022-07-27T04:38:10.776Z,2084.00
2022-07-27T04:39:11.022Z,2104.00
2022-07-27T04:40:10.793Z,2128.00
2022-07-27T04:41:10.796Z,2152.00
2022-07-27T04:42:10.817Z,2164.00
2022-07-27T04:43:10.821Z,2180.00
2022-07-27T04:44:10.829Z,2192.00
2022-07-27T04:45:10.839Z,2200.00
2022-07-27T04:46:15.142Z,2212.00
2022-07-27T04:47:10.855Z,2212.00
2022-07-27T04:48:10.856Z,2080.00
2022-07-27T04:49:11.223Z,1948.00
2022-07-27T04:50:10.876Z,1992.00
2022-07-27T04:51:10.891Z,2048.00
2022-07-27T04:52:10.892Z,2156.00
2022-07-27T04:53:10.900Z,2396.00
2022-07-27T04:54:10.920Z,2480.00
2022-07-27T04:55:10.918Z,2544.00
2022-07-27T04:56:10.934Z,2604.00
2022-07-27T04:57:10.937Z,2680.00
2022-07-27T04:58:10.946Z,2784.00
2022-07-27T04:59:11.287Z,2948.00
2022-07-27T05:00:10.963Z,3116.00
2022-07-27T05:01:10.989Z,3272.00
2022-07-27T05:02:10.982Z,3404.00
2022-07-27T05:03:10.993Z,3544.00
2022-07-27T05:04:11.026Z,3660.00
2022-07-27T05:05:11.013Z,3768.00
2022-07-27T05:06:11.016Z,3860.00
2022-07-27T05:07:11.025Z,3904.00
2022-07-27T05:08:11.038Z,3944.00
2022-07-27T05:09:11.339Z,4048.00
2022-07-27T05:10:11.051Z,4152.00
2022-07-27T05:11:11.078Z,4228.00
2022-07-27T05:12:11.070Z,4224.00
2022-07-27T05:13:11.084Z,4188.00
2022-07-27T05:14:11.086Z,4144.00
2022-07-27T05:15:11.102Z,4088.00
2022-07-27T05:16:11.236Z,4064.00
2022-07-27T05:17:11.119Z,4060.00
2022-07-27T05:18:11.123Z,4044.00
2022-07-27T05:19:11.494Z,4048.00
2022-07-27T05:20:11.146Z,3988.00
2022-07-27T05:21:13.781Z,3968.00
2022-07-27T05:22:11.168Z,4024.00
2022-07-27T05:23:11.176Z,3924.00
2022-07-27T05:24:11.187Z,4012.00
2022-07-27T05:25:11.184Z,4168.00
2022-07-27T05:26:11.203Z,4420.00
2022-07-27T05:27:11.204Z,4428.00
2022-07-27T05:28:11.221Z,4588.00
2022-07-27T05:29:11.535Z,4808.00
2022-07-27T05:30:11.240Z,4872.00
2022-07-27T05:31:11.248Z,4972.00
2022-07-27T05:32:11.382Z,5076.00
2022-07-27T05:33:11.258Z,5224.00
2022-07-27T05:34:11.277Z,5400.00
2022-07-27T05:35:11.278Z,5664.00
2022-07-27T05:36:11.287Z,5660.00
2022-07-27T05:37:11.296Z,5692.00
2022-07-27T05:38:11.306Z,5760.00
2022-07-27T05:39:13.770Z,5680.00
2022-07-27T05:40:11.333Z,5672.00
2022-07-27T05:41:11.340Z,5660.00
2022-07-27T05:42:11.355Z,5596.00
2022-07-27T05:43:11.361Z,5572.00
2022-07-27T05:44:11.362Z,5624.00
2022-07-27T05:45:11.383Z,5596.00
2022-07-27T05:46:11.492Z,5504.00
2022-07-27T05:47:11.667Z,5408.00
2022-07-27T05:48:11.409Z,5384.00
2022-07-27T05:49:11.707Z,5384.00
2022-07-27T05:50:11.420Z,5412.00
2022-07-27T05:51:11.436Z,5488.00
2022-07-27T05:52:11.447Z,5576.00
2022-07-27T05:53:11.488Z,5660.00
2022-07-27T05:54:11.479Z,5756.00
2022-07-27T05:55:11.490Z,5820.00
2022-07-27T05:56:11.493Z,5872.00
2022-07-27T05:57:11.495Z,5896.00
2022-07-27T05:58:11.499Z,5904.00
2022-07-27T05:59:11.852Z,5844.00
2022-07-27T06:00:11.522Z,5764.00
2022-07-27T06:01:11.604Z,5656.00
2022-07-27T06:02:11.535Z,5872.00
2022-07-27T06:03:11.584Z,5428.00
2022-07-27T06:04:14.481Z,5316.00
2022-07-27T06:05:15.627Z,5216.00
2022-07-27T06:06:11.581Z,5104.00
2022-07-27T06:07:11.586Z,4940.00
2022-07-27T06:08:11.593Z,4748.00
2022-07-27T06:09:12.118Z,4872.00
2022-07-27T06:10:11.615Z,4676.00
2022-07-27T06:11:11.634Z,4644.00
2022-07-27T06:12:11.631Z,4812.00
2022-07-27T06:13:11.643Z,5124.00
2022-07-27T06:14:11.652Z,5144.00
2022-07-27T06:15:11.662Z,5112.00
2022-07-27T06:16:11.757Z,5288.00
2022-07-27T06:17:11.681Z,5364.00
2022-07-27T06:18:11.698Z,5640.00
2022-07-27T06:19:12.079Z,6148.00
2022-07-27T06:20:11.723Z,6700.00
2022-07-27T06:21:11.727Z,7392.00
2022-07-27T06:22:11.733Z,7900.00
2022-07-27T06:23:11.746Z,8192.00
2022-07-27T06:24:11.757Z,8328.00
2022-07-27T06:25:11.759Z,8332.00
2022-07-27T06:26:11.777Z,8264.00
2022-07-27T06:27:11.780Z,8112.00
2022-07-27T06:28:11.812Z,7880.00
2022-07-27T06:29:12.147Z,7456.00
2022-07-27T06:30:11.817Z,7056.00
2022-07-27T06:31:11.939Z,6824.00
2022-07-27T06:32:11.875Z,6164.00
2022-07-27T06:33:11.839Z,5752.00
2022-07-27T06:34:12.111Z,5664.00
2022-07-27T06:35:12.644Z,5660.00
2022-07-27T06:36:11.875Z,5712.00
2022-07-27T06:37:11.879Z,5844.00
2022-07-27T06:38:11.895Z,6168.00
2022-07-27T06:39:12.212Z,6220.00
2022-07-27T06:40:11.915Z,6192.00
2022-07-27T06:41:11.927Z,6056.00
2022-07-27T06:42:11.928Z,5756.00
2022-07-27T06:43:11.941Z,4972.00
2022-07-27T06:44:11.957Z,4732.00
2022-07-27T06:45:11.960Z,4764.00
2022-07-27T06:46:11.969Z,4712.00
2022-07-27T06:47:12.066Z,4832.00
2022-07-27T06:48:11.989Z,5184.00
2022-07-27T06:49:12.448Z,5380.00
2022-07-27T06:50:12.017Z,5420.00
2022-07-27T06:51:12.021Z,6712.00
2022-07-27T06:52:12.039Z,8160.00
2022-07-27T06:53:12.046Z,8472.00
2022-07-27T06:54:12.050Z,8948.00
2022-07-27T06:55:12.066Z,9684.00
2022-07-27T06:56:12.083Z,9968.00
2022-07-27T06:57:12.086Z,9448.00
2022-07-27T06:58:12.098Z,9112.00
2022-07-27T06:59:12.462Z,9064.00
2022-07-27T07:00:12.118Z,9212.00
2022-07-27T07:01:12.251Z,9168.00
2022-07-27T07:02:12.135Z,9956.00
2022-07-27T07:03:12.142Z,10124.00
2022-07-27T07:04:12.260Z,10528.00
2022-07-27T07:05:12.175Z,10664.00
2022-07-27T07:06:12.170Z,9676.00
2022-07-27T07:07:12.184Z,7788.00
2022-07-27T07:08:12.211Z,7608.00
2022-07-27T07:09:12.645Z,7208.00
2022-07-27T07:10:12.211Z,6664.00
2022-07-27T07:11:12.226Z,7136.00
2022-07-27T07:12:12.239Z,7180.00
2022-07-27T07:13:12.246Z,6888.00
2022-07-27T07:14:12.255Z,7768.00
2022-07-27T07:15:12.273Z,9128.00
2022-07-27T07:16:12.391Z,9608.00
2022-07-27T07:17:12.294Z,9608.00
2022-07-27T07:18:12.301Z,9056.00
2022-07-27T07:19:12.749Z,8764.00
2022-07-27T07:20:12.320Z,8900.00
2022-07-27T07:21:12.328Z,8720.00
2022-07-27T07:22:12.340Z,9184.00
2022-07-27T07:23:12.363Z,9836.00
2022-07-27T07:24:12.375Z,10728.00
2022-07-27T07:25:12.381Z,11344.00
2022-07-27T07:26:12.391Z,10932.00
2022-07-27T07:27:12.404Z,12124.00
2022-07-27T07:28:12.409Z,13288.00
2022-07-27T07:29:12.714Z,11288.00
2022-07-27T07:30:12.428Z,8744.00
2022-07-27T07:31:12.504Z,8852.00
2022-07-27T07:32:12.445Z,9912.00
2022-07-27T07:33:12.464Z,10092.00
2022-07-27T07:34:13.275Z,10260.00
2022-07-27T07:35:12.486Z,9772.00
2022-07-27T07:36:14.948Z,10644.00
2022-07-27T07:37:12.507Z,10880.00
2022-07-27T07:38:12.518Z,9804.00
2022-07-27T07:39:12.897Z,8208.00
2022-07-27T07:40:41.598Z,7348.00
2022-07-27T07:41:55.095Z,6376.00
2022-07-27T07:42:55.106Z,7088.00
2022-07-27T07:43:55.110Z,7536.00
2022-07-27T07:44:55.122Z,8592.00
2022-07-27T07:45:55.131Z,9520.00
2022-07-27T07:46:55.269Z,10328.00
2022-07-27T08:40:38.387Z,20224.00
2022-07-27T08:40:47.166Z,47104.00
2022-07-27T08:41:46.453Z,71712.00
2022-07-27T08:42:46.460Z,12660.00
2022-07-27T08:43:46.474Z,11296.00
2022-07-27T08:44:46.485Z,12240.00
2022-07-27T08:45:46.498Z,13468.00
2022-07-27T08:46:46.618Z,13604.00
2022-07-27T08:47:46.518Z,13752.00
2022-07-27T08:48:46.598Z,82784.00
2022-07-27T08:54:05.746Z,82336.00
2022-07-27T08:55:05.757Z,19104.00
2022-07-27T08:56:05.772Z,17120.00
2022-07-27T08:57:05.788Z,18208.00
2022-07-27T08:58:05.814Z,65408.00
2022-07-27T08:59:05.818Z,80320.00
2022-07-27T09:00:08.459Z,90912.00
2022-07-27T09:01:05.841Z,92192.00
2022-07-27T09:02:05.912Z,94368.00
2022-07-27T09:03:05.959Z,95232.00
2022-07-27T09:04:05.882Z,22880.00
2022-07-27T09:05:05.897Z,16096.00
2022-07-27T09:06:05.915Z,27616.00
2022-07-27T09:07:08.561Z,31200.00
2022-07-27T09:08:08.576Z,91008.00
2022-07-27T09:24:44.516Z,102080.00
2022-07-27T10:02:25.297Z,14092.00
2022-07-27T10:04:28.001Z,13180.00
2022-07-27T10:05:27.797Z,13152.00
2022-07-27T10:06:27.819Z,12892.00
2022-07-27T10:07:27.843Z,12880.00
2022-07-27T10:08:27.863Z,13300.00
2022-07-27T10:10:20.445Z,15116.00
2022-07-27T10:11:20.465Z,16960.00
2022-07-27T10:12:20.481Z,19456.00
2022-07-27T10:13:20.500Z,23200.00
2022-07-27T10:14:20.516Z,117216.00
2022-07-27T10:15:20.545Z,141440.00
2022-07-27T10:16:20.658Z,32352.00
2022-07-27T10:17:20.572Z,27872.00
2022-07-27T10:18:20.588Z,36704.00
2022-07-27T10:19:20.604Z,26112.00
2022-07-27T10:20:20.628Z,25056.00
2022-07-27T10:21:20.649Z,23488.00
2022-07-27T10:22:20.663Z,23648.00
2022-07-27T10:23:20.682Z,45056.00
2022-07-27T10:24:20.697Z,88288.00
2022-07-27T10:25:20.715Z,143712.00
2022-07-27T10:26:20.725Z,148160.00
2022-07-27T10:27:20.762Z,149344.00
2022-07-27T10:28:20.764Z,34496.00
2022-07-27T10:29:23.400Z,56416.00
2022-07-27T10:30:27.702Z,28352.00
2022-07-27T10:31:21.046Z,25760.00
2022-07-27T10:32:20.835Z,23968.00
2022-07-27T10:33:20.853Z,21568.00
2022-07-27T10:34:20.880Z,19712.00
2022-07-27T10:35:20.892Z,18208.00
2022-07-27T10:36:20.916Z,16864.00
2022-07-27T10:37:20.935Z,16256.00
2022-07-27T10:38:20.953Z,16704.00
2022-07-27T10:39:20.965Z,17984.00
2022-07-27T10:40:20.988Z,20000.00
2022-07-27T10:41:21.008Z,22016.00
2022-07-27T10:42:21.023Z,25792.00
2022-07-27T10:43:21.042Z,28032.00
2022-07-27T10:44:21.058Z,35392.00
2022-07-27T10:45:21.076Z,35936.00
2022-07-27T10:46:21.102Z,45152.00
2022-07-27T10:47:21.112Z,69248.00
2022-07-27T10:48:21.126Z,40448.00
2022-07-27T10:49:21.166Z,29632.00
2022-07-27T10:50:21.152Z,25056.00
2022-07-27T10:51:21.169Z,22080.00
2022-07-27T10:52:21.192Z,19808.00
2022-07-27T10:53:21.200Z,18112.00
2022-07-27T10:54:21.225Z,17184.00
2022-07-27T10:55:21.233Z,16736.00
2022-07-27T10:56:21.259Z,16352.00
2022-07-27T10:57:21.273Z,15808.00
2022-07-27T10:58:21.284Z,15396.00
2022-07-27T10:59:21.306Z,15324.00
2022-07-27T11:00:21.385Z,15936.00
2022-07-27T11:01:21.426Z,16736.00
2022-07-27T11:02:21.355Z,18272.00
2022-07-27T11:03:21.363Z,20192.00
2022-07-27T11:04:21.416Z,21344.00
2022-07-27T11:06:55.726Z,30496.00
2022-07-27T11:07:24.341Z,53664.00
2022-07-27T11:08:36.477Z,145664.00
2022-07-27T11:10:02.512Z,143616.00
2022-07-27T11:10:21.480Z,111680.00
2022-07-27T11:11:21.499Z,43360.00
2022-07-27T11:12:21.515Z,39456.00
2022-07-27T11:13:21.545Z,42624.00
2022-07-27T11:14:30.359Z,34304.00
2022-07-27T11:15:21.560Z,51616.00
2022-07-27T11:16:24.408Z,52416.00
2022-07-27T11:20:47.493Z,20160.00
2022-07-27T11:21:47.519Z,19520.00
2022-07-27T11:24:45.130Z,22912.00
2022-07-27T11:25:45.155Z,24064.00
2022-07-27T11:26:45.176Z,24992.00
2022-07-27T11:27:45.184Z,24608.00
2022-07-27T11:28:45.202Z,23136.00
2022-07-27T11:29:45.221Z,24288.00
2022-07-27T11:30:45.294Z,87616.00
2022-07-27T11:31:55.510Z,36672.00
2022-07-27T11:32:45.276Z,26304.00
2022-07-27T11:33:45.296Z,28992.00
2022-07-27T11:34:45.311Z,156000.00
2022-07-27T11:35:45.323Z,135072.00
2022-07-27T11:36:45.338Z,111648.00
2022-07-27T11:37:45.364Z,162912.00
2022-07-27T12:00:52.997Z,30240.00
2022-07-27T12:01:53.053Z,27904.00
2022-07-27T12:02:53.128Z,31200.00
2022-07-27T12:03:53.089Z,34560.00
2022-07-27T12:04:53.227Z,66560.00
2022-07-27T12:05:53.092Z,29568.00
2022-07-27T12:06:53.115Z,26848.00
2022-07-27T12:07:53.130Z,23872.00
2022-07-27T12:08:53.150Z,21216.00
2022-07-27T12:09:53.172Z,20096.00
2022-07-27T12:10:53.180Z,18784.00
2022-07-27T12:11:53.200Z,18752.00
2022-07-27T12:12:53.224Z,22144.00
2022-07-27T12:13:53.245Z,29312.00
2022-07-27T12:14:53.255Z,25120.00
2022-07-27T12:15:53.277Z,21728.00
2022-07-27T12:16:53.355Z,22560.00
2022-07-27T12:17:53.306Z,24800.00
2022-07-27T12:18:53.326Z,18720.00
2022-07-27T12:19:53.349Z,16832.00
2022-07-27T12:20:53.368Z,16832.00
2022-07-27T12:21:53.382Z,17984.00
2022-07-27T12:22:53.401Z,19904.00
2022-07-27T12:23:53.420Z,22016.00
2022-07-27T12:24:53.452Z,29120.00
2022-07-27T12:25:53.444Z,149664.00
2022-07-27T12:26:53.460Z,95424.00
2022-07-27T12:27:53.486Z,110464.00
2022-07-27T12:28:53.501Z,24384.00
2022-07-27T12:29:53.519Z,22112.00
2022-07-27T12:30:53.584Z,24576.00
2022-07-27T12:31:53.553Z,28352.00
2022-07-27T12:32:55.631Z,136928.00
2022-07-27T12:34:02.894Z,116192.00
2022-07-27T12:34:53.606Z,43520.00
2022-07-27T12:35:53.625Z,39584.00
2022-07-27T12:43:16.242Z,21952.00
2022-07-27T12:44:16.265Z,24384.00
2022-07-27T12:45:16.285Z,33280.00
2022-07-27T12:46:16.470Z,38240.00
2022-07-27T12:47:16.321Z,28192.00
2022-07-27T12:48:16.331Z,20544.00
2022-07-27T12:49:16.918Z,18976.00
2022-07-27T12:50:16.373Z,18016.00
2022-07-27T12:51:16.382Z,17440.00
2022-07-27T12:52:16.400Z,17024.00
2022-07-27T12:53:16.436Z,17376.00
2022-07-27T12:54:16.436Z,22976.00
2022-07-27T12:55:16.453Z,19328.00
2022-07-27T12:56:16.477Z,17184.00
2022-07-27T12:57:28.706Z,18144.00
2022-07-27T12:58:16.513Z,19616.00
2022-07-27T12:59:16.620Z,17600.00
2022-07-27T13:00:16.541Z,15016.00
2022-07-27T13:01:16.598Z,15344.00
2022-07-27T13:02:16.639Z,14564.00
2022-07-27T13:03:16.592Z,14892.00
2022-07-27T13:04:16.609Z,21888.00
2022-07-27T13:19:45.772Z,21536.00
2022-07-27T13:20:45.797Z,24576.00
2022-07-27T13:21:45.821Z,25696.00
2022-07-27T13:22:45.832Z,19648.00
2022-07-27T13:23:45.847Z,65536.00
2022-07-27T13:24:45.856Z,15660.00
2022-07-27T13:25:45.874Z,17376.00
2022-07-27T13:26:45.892Z,21344.00
2022-07-27T13:27:45.917Z,22112.00
2022-07-27T13:28:45.935Z,78496.00
2022-07-27T13:29:45.944Z,19456.00
2022-07-27T13:30:45.959Z,19072.00
2022-07-27T13:31:52.300Z,20928.00
2022-07-27T13:32:46.001Z,23296.00
2022-07-27T13:33:46.013Z,20000.00
2022-07-27T13:34:46.036Z,17472.00
2022-07-27T13:35:46.046Z,16480.00
2022-07-27T13:36:46.062Z,15556.00
2022-07-27T13:37:46.081Z,16832.00
2022-07-27T13:38:46.095Z,21760.00
2022-07-27T13:39:46.116Z,21344.00
2022-07-27T13:40:46.142Z,90656.00
2022-07-27T13:41:46.148Z,111456.00
2022-07-27T13:42:46.172Z,106240.00
2022-07-27T13:43:46.187Z,103616.00
2022-07-27T13:45:12.045Z,102208.00
2022-07-27T13:45:46.277Z,103360.00
2022-07-27T14:20:47.142Z,93952.00
2022-07-27T14:21:47.156Z,91328.00
2022-07-27T14:22:47.174Z,91200.00
2022-07-27T14:23:47.191Z,90944.00
2022-07-27T14:24:47.202Z,91488.00
2022-07-27T14:52:49.808Z,13968.00
2022-07-27T14:53:49.816Z,73920.00
2022-07-27T14:54:49.834Z,75360.00
2022-07-27T14:55:49.860Z,47680.00
2022-07-27T14:56:49.869Z,40288.00
2022-07-27T14:57:49.888Z,71936.00
2022-07-27T14:58:49.915Z,72128.00
2022-07-27T14:59:49.926Z,63616.00
2022-07-27T15:00:49.991Z,34176.00
2022-07-27T15:01:50.149Z,67520.00
2022-07-27T15:02:50.013Z,68736.00
2022-07-27T15:04:32.558Z,69152.00
2022-07-27T15:05:32.584Z,63808.00
2022-07-27T15:06:36.876Z,66432.00
2022-07-27T15:07:32.613Z,64832.00
2022-07-27T15:08:32.631Z,64992.00
2022-07-27T15:27:28.498Z,15176.00
2022-07-27T15:28:28.523Z,14248.00
2022-07-27T15:29:28.539Z,13684.00
2022-07-27T15:30:28.564Z,13232.00
2022-07-27T15:31:28.617Z,12896.00
2022-07-27T15:32:28.594Z,12432.00
2022-07-27T15:33:28.602Z,11548.00
2022-07-27T15:34:28.628Z,10556.00
2022-07-27T15:35:28.638Z,9748.00
2022-07-27T15:36:32.383Z,9544.00
2022-07-27T15:37:28.673Z,9068.00
2022-07-27T15:38:28.693Z,8348.00
2022-07-27T15:39:28.714Z,9692.00
2022-07-27T15:40:28.727Z,10156.00
2022-07-27T15:41:28.791Z,11472.00
2022-07-27T15:42:28.757Z,11936.00
2022-07-27T15:43:28.784Z,12832.00
2022-07-27T15:44:28.795Z,13596.00
2022-07-27T15:45:28.808Z,13636.00
2022-07-27T15:46:28.884Z,12900.00
2022-07-27T15:47:32.272Z,10788.00
2022-07-27T15:48:28.867Z,10220.00
2022-07-27T19:07:57.316Z,276.00
2022-07-27T19:08:57.319Z,256.00
2022-07-27T19:09:57.336Z,236.00
2022-07-27T19:10:57.338Z,220.00
2022-07-27T19:11:57.349Z,204.00
2022-07-27T19:12:57.358Z,188.00
2022-07-27T19:13:57.378Z,172.00
2022-07-27T19:14:57.386Z,160.00
2022-07-27T19:57:11.316Z,0.00
2022-07-27T19:58:11.281Z,0.00
2022-07-27T19:59:11.557Z,0.00
2022-07-27T20:00:11.309Z,0.00
2022-07-27T20:01:11.604Z,0.00
2022-07-27T20:02:11.369Z,0.00
2022-07-27T20:03:11.335Z,0.00
2022-07-27T20:04:11.337Z,0.00
2022-07-27T20:05:11.352Z,0.00
2022-07-27T20:06:11.357Z,0.00
2022-07-27T20:07:11.369Z,0.00
2022-07-27T20:08:11.377Z,0.00
2022-07-27T20:09:11.616Z,0.00
2022-07-27T20:10:11.408Z,0.00
2022-07-27T20:11:11.406Z,0.00
2022-07-27T20:12:11.426Z,0.00
2022-07-27T20:13:11.429Z,0.00
2022-07-27T20:14:11.439Z,0.00
2022-07-27T20:15:11.456Z,0.00
2022-07-27T20:16:11.543Z,0.00
2022-07-27T20:17:11.517Z,0.00
2022-07-27T20:18:11.488Z,0.00
2022-07-27T20:19:11.859Z,0.00
2022-07-27T20:20:11.508Z,0.00
2022-07-27T20:21:17.252Z,0.00
2022-07-27T20:22:11.521Z,0.00
2022-07-27T20:23:11.540Z,0.00
2022-07-27T20:24:11.551Z,0.00
2022-07-27T20:25:11.554Z,0.00
2022-07-27T20:26:11.565Z,0.00
2022-07-27T20:27:11.572Z,0.00
2022-07-27T20:28:11.598Z,0.00
2022-07-27T20:29:11.893Z,0.00
2022-07-27T20:30:11.612Z,0.00
2022-07-27T20:31:11.678Z,0.00
2022-07-27T20:32:11.626Z,0.00
2022-07-27T20:33:11.642Z,0.00
2022-07-27T20:34:11.645Z,0.00
2022-07-27T20:35:11.657Z,0.00
2022-07-27T20:36:11.675Z,0.00
2022-07-27T20:37:11.686Z,0.00
2022-07-27T20:38:11.694Z,0.00
2022-07-27T20:39:16.900Z,0.00
2022-07-27T20:40:11.715Z,0.00
2022-07-27T20:41:11.720Z,0.00
2022-07-27T20:42:11.728Z,0.00
2022-07-27T20:43:11.756Z,0.00
2022-07-27T20:44:11.755Z,0.00
2022-07-27T20:45:11.769Z,0.00
2022-07-27T20:46:11.858Z,0.00
2022-07-27T20:47:11.782Z,0.00
2022-07-27T20:48:11.804Z,0.00
2022-07-27T20:49:12.114Z,0.00
2022-07-27T20:50:11.812Z,0.00
2022-07-27T20:51:11.827Z,0.00
2022-07-27T20:52:11.838Z,0.00
2022-07-27T20:53:11.850Z,0.00
2022-07-27T20:54:11.859Z,0.00
2022-07-27T20:55:11.869Z,0.00
2022-07-27T20:56:11.880Z,0.00
2022-07-27T20:57:11.892Z,0.00
2022-07-27T20:58:11.904Z,0.00
2022-07-27T20:59:17.333Z,0.00
2022-07-27T21:00:11.923Z,0.00
2022-07-27T21:01:11.993Z,0.00
2022-07-27T21:02:11.998Z,0.00
2022-07-27T21:03:11.955Z,0.00
2022-07-27T21:04:11.959Z,0.00
2022-07-27T21:05:11.968Z,0.00
2022-07-27T21:06:12.018Z,0.00
2022-07-27T21:07:11.984Z,0.00
2022-07-27T21:08:12.001Z,0.00
2022-07-27T21:09:12.352Z,0.00
2022-07-27T21:10:12.015Z,0.00
2022-07-27T21:11:12.031Z,0.00
2022-07-27T21:12:12.037Z,0.00
2022-07-27T21:13:12.050Z,0.00
2022-07-27T21:14:12.066Z,0.00
2022-07-27T21:15:13.659Z,0.00
2022-07-27T21:16:12.159Z,0.00
2022-07-27T21:17:12.086Z,0.00
2022-07-27T21:18:12.101Z,0.00
2022-07-27T21:19:12.446Z,0.00
2022-07-27T21:20:12.127Z,0.00
2022-07-27T21:21:12.127Z,0.00
2022-07-27T21:22:12.135Z,0.00
2022-07-27T21:23:12.156Z,0.00
2022-07-27T21:24:12.535Z,0.00
2022-07-27T21:25:13.210Z,0.00
2022-07-27T21:26:12.189Z,0.00
2022-07-27T21:27:12.199Z,0.00
2022-07-27T21:28:16.889Z,0.00
2022-07-27T21:29:12.207Z,0.00
2022-07-27T21:30:12.222Z,0.00
2022-07-27T21:31:12.235Z,0.00
2022-07-27T21:32:12.245Z,0.00
2022-07-27T21:33:12.353Z,0.00
2022-07-27T21:34:12.665Z,0.00
2022-07-27T21:35:12.274Z,0.00
2022-07-27T21:36:12.282Z,0.00
2022-07-27T21:37:12.287Z,0.00
2022-07-27T21:38:12.302Z,0.00
2022-07-27T21:39:12.306Z,0.00
2022-07-27T21:40:12.322Z,0.00
2022-07-27T21:41:12.334Z,0.00
2022-07-27T21:42:12.343Z,0.00
2022-07-27T21:43:12.352Z,0.00
2022-07-27T21:44:12.631Z,0.00
2022-07-27T21:45:12.373Z,0.00
2022-07-27T21:46:12.497Z,0.00
2022-07-27T21:47:14.228Z,0.00
2022-07-27T21:48:12.393Z,0.00
2022-07-27T21:49:12.477Z,0.00
2022-07-27T21:50:12.412Z,0.00
2022-07-27T21:51:12.432Z,0.00
2022-07-27T21:52:12.432Z,0.00
2022-07-27T21:53:12.444Z,0.00
2022-07-27T21:54:12.782Z,0.00
2022-07-27T21:55:12.467Z,0.00
2022-07-27T21:56:12.476Z,0.00
2022-07-27T21:57:12.484Z,0.00
2022-07-27T21:58:12.498Z,0.00
2022-07-27T21:59:12.502Z,0.00
2022-07-27T22:00:12.514Z,0.00
2022-07-27T22:01:12.595Z,0.00
2022-07-27T22:02:12.541Z,0.00
2022-07-27T22:03:12.549Z,0.00
2022-07-27T22:04:12.830Z,0.00
2022-07-27T22:05:12.580Z,0.00
2022-07-27T22:06:12.573Z,0.00
2022-07-27T22:07:16.763Z,0.00
2022-07-27T22:08:12.588Z,0.00
2022-07-27T22:09:12.600Z,0.00
2022-07-27T22:10:12.608Z,0.00
2022-07-27T22:11:12.627Z,0.00
2022-07-27T22:12:12.635Z,0.00
2022-07-27T22:13:12.640Z,0.00
2022-07-27T22:14:12.917Z,0.00
2022-07-27T22:15:12.658Z,0.00
2022-07-27T22:16:12.770Z,0.00
2022-07-27T22:17:12.684Z,0.00
2022-07-27T22:18:12.694Z,0.00
2022-07-27T22:19:12.703Z,0.00
2022-07-27T22:20:12.715Z,0.00
2022-07-27T22:21:12.717Z,0.00
2022-07-27T22:22:12.725Z,0.00
2022-07-27T22:23:12.734Z,0.00
2022-07-27T22:24:13.116Z,0.00
2022-07-27T22:25:12.761Z,0.00
2022-07-27T22:26:12.765Z,0.00
2022-07-27T22:27:12.779Z,0.00
2022-07-27T22:28:12.793Z,0.00
2022-07-27T22:29:12.797Z,0.00
2022-07-27T22:30:12.814Z,0.00
2022-07-27T22:31:21.739Z,0.00
2022-07-27T22:32:12.872Z,0.00
2022-07-27T22:33:12.843Z,0.00
2022-07-27T22:34:13.175Z,0.00
2022-07-27T22:35:12.851Z,0.00
2022-07-27T22:36:12.865Z,0.00
2022-07-27T22:37:12.905Z,0.00
2022-07-27T22:38:12.887Z,0.00
2022-07-27T22:39:12.926Z,0.00
2022-07-27T22:40:12.898Z,0.00
2022-07-27T22:41:12.914Z,0.00
2022-07-27T22:42:12.923Z,0.00
2022-07-27T22:43:12.934Z,0.00
2022-07-27T22:44:13.275Z,0.00
2022-07-27T22:45:12.953Z,0.00
2022-07-27T22:46:12.977Z,0.00
2022-07-27T22:47:12.965Z,0.00
2022-07-27T22:48:12.972Z,0.00
2022-07-27T22:49:13.097Z,0.00
2022-07-27T22:50:13.953Z,0.00
2022-07-27T22:51:13.003Z,0.00
2022-07-27T22:52:13.012Z,0.00
2022-07-27T22:53:13.021Z,0.00
2022-07-27T22:54:13.377Z,0.00
2022-07-27T22:55:13.046Z,0.00
2022-07-27T22:56:13.057Z,0.00
2022-07-27T22:57:13.059Z,0.00
2022-07-27T22:58:13.074Z,0.00
2022-07-27T22:59:13.080Z,0.00
2022-07-27T23:00:13.109Z,0.00
2022-07-27T23:01:41.537Z,0.00
2022-07-27T23:02:13.116Z,0.00
2022-07-27T23:03:13.115Z,0.00
2022-07-27T23:04:13.447Z,0.00
2022-07-27T23:05:13.195Z,0.00
2022-07-27T23:06:13.154Z,0.00
2022-07-27T23:07:13.159Z,0.00
2022-07-27T23:08:13.173Z,0.00
2022-07-27T23:09:13.182Z,0.00
2022-07-27T23:10:13.181Z,0.00
2022-07-27T23:11:13.199Z,0.00
2022-07-27T23:12:13.199Z,0.00
2022-07-27T23:13:13.217Z,0.00
2022-07-27T23:14:13.677Z,0.00
2022-07-27T23:15:13.235Z,0.00
2022-07-27T23:16:13.301Z,0.00
2022-07-27T23:17:13.247Z,0.00
2022-07-27T23:18:13.253Z,0.00
2022-07-27T23:19:13.272Z,0.00
2022-07-27T23:20:13.273Z,0.00
2022-07-27T23:21:13.292Z,0.00
2022-07-27T23:22:13.299Z,0.00
2022-07-27T23:23:16.407Z,0.00
2022-07-27T23:24:14.297Z,0.00
2022-07-27T23:25:13.322Z,0.00
2022-07-27T23:26:13.328Z,0.00
2022-07-27T23:27:13.338Z,0.00
2022-07-27T23:28:13.349Z,0.00
2022-07-27T23:29:13.363Z,0.00
2022-07-27T23:30:13.365Z,0.00
2022-07-27T23:31:13.493Z,0.00
2022-07-27T23:32:13.394Z,0.00
2022-07-27T23:33:13.393Z,0.00
2022-07-27T23:34:13.689Z,0.00
2022-07-27T23:35:13.418Z,0.00
2022-07-27T23:36:13.430Z,0.00
2022-07-27T23:37:13.437Z,0.00
2022-07-27T23:38:13.448Z,0.00
2022-07-27T23:39:13.457Z,0.00
2022-07-27T23:40:13.478Z,0.00
2022-07-27T23:41:13.477Z,0.00
2022-07-27T23:42:13.476Z,0.00
2022-07-27T23:43:13.485Z,0.00
2022-07-27T23:44:13.855Z,0.00
2022-07-27T23:45:13.520Z,0.00
2022-07-27T23:46:13.631Z,0.00
2022-07-27T23:47:13.521Z,0.00
2022-07-27T23:48:13.531Z,0.00
2022-07-27T23:49:13.658Z,0.00